Punta Gorda, FL

7:44 PM EDT on August 26, 2016 (GMT -0400)
Charlotte County | | Change Station

Elev 26 ft 26.92 °N, 81.99 °W | Updated 22 minutes ago

Light Thunderstorms and Rain
Light Thunderstorm Rain
78 °F
Feels Like 78 °F
N
5
Wind Variable Wind from Variable
Gusts 17 mph

Today
High -- | Low -- °F
--% Chance of Precip.
Yesterday
High -- | Low -- °F
Precip. -- in
Pressure 29.94 in
Visibility 10.0 miles
Clouds Mostly Cloudy 2700 ft
Overcast 3100 ft
Dew Point 75 °F
Humidity 90%
Rainfall 0.00 in
Snow Depth Not available.
7:04 AM 7:53 PM
Waning Crescent, 30% visible
SPECI KPGD 262322Z AUTO VRB04G15KT 10SM -TSRA BKN027 OVC031 26/24 A2994 RMK AO2 LTG DSNT ALQDS RAB08 TSB07 P0002 T02560239
Pressure 29.94 in
Visibility 10.0 miles
Clouds Mostly Cloudy 2700 ft
Overcast 3100 ft
Dew Point 75 °F
Humidity 90%
Rainfall 0.00 in
Snow Depth Not available.
7:04 AM 7:53 PM
Waning Crescent, 30% visible
SPECI KPGD 262322Z AUTO VRB04G15KT 10SM -TSRA BKN027 OVC031 26/24 A2994 RMK AO2 LTG DSNT ALQDS RAB08 TSB07 P0002 T02560239

10-Day Weather Forecast

Almanac

Astronomy

Aug. 26, 2016 Rise Set
Actual Time
Civil Twilight
Nautical Twilight
Astronomical Twilight
Moon
Length of Visible Light
Length of Day
Tomorrow will be .
, % of the Moon is Illuminated

Today's Extremes

State Highs State Lows

Community

WunderPhotos

Upload Photos

1,935,255 photos uploaded!

WunderBlog® & News

Nearby

Air Quality

  Air Quality AQ Index Pollutant
Not available.

Snow Depth

Station Depth Elevation

Earthquake Activity

City Distance Mag. Time & Date
Minimum magnitude displayed is 2.5.

Coastal Water Temperatures

Place Temperature

Stations

Nearby Weather Stations

Station Location Temp. Windchill Dew Point Humidity Wind Precip. Elev Updated Type
                   

Watches & Warnings

There are currently no watches in effect.